sensor_id;sensor_type;location;lat;lon;timestamp;temperature;humidity
34135;DHT22;20410;55.578;12.968;2023-04-06T00:00:56;6.20;1.00
34135;DHT22;20410;55.578;12.968;2023-04-06T00:03:22;6.20;1.00
34135;DHT22;20410;55.578;12.968;2023-04-06T00:05:48;6.10;1.00
34135;DHT22;20410;55.578;12.968;2023-04-06T00:08:13;6.20;1.00
34135;DHT22;20410;55.578;12.968;2023-04-06T00:10:39;6.20;1.00
34135;DHT22;20410;55.578;12.968;2023-04-06T00:13:06;6.30;1.00
34135;DHT22;20410;55.578;12.968;2023-04-06T00:15:31;6.30;1.00
34135;DHT22;20410;55.578;12.968;2023-04-06T00:17:57;6.40;1.00
34135;DHT22;20410;55.578;12.968;2023-04-06T00:20:23;6.40;1.00
34135;DHT22;20410;55.578;12.968;2023-04-06T00:22:49;6.40;1.00
34135;DHT22;20410;55.578;12.968;2023-04-06T00:25:14;6.50;1.00
34135;DHT22;20410;55.578;12.968;2023-04-06T00:27:41;6.40;1.00
34135;DHT22;20410;55.578;12.968;2023-04-06T00:30:07;6.50;1.00
34135;DHT22;20410;55.578;12.968;2023-04-06T00:32:34;6.50;1.00
34135;DHT22;20410;55.578;12.968;2023-04-06T00:35:01;6.40;1.00
34135;DHT22;20410;55.578;12.968;2023-04-06T00:37:27;6.20;1.00
34135;DHT22;20410;55.578;12.968;2023-04-06T00:39:52;6.20;1.00
34135;DHT22;20410;55.578;12.968;2023-04-06T00:42:18;6.10;1.00
34135;DHT22;20410;55.578;12.968;2023-04-06T00:45:00;6.00;1.00
34135;DHT22;20410;55.578;12.968;2023-04-06T00:47:26;5.90;1.00
34135;DHT22;20410;55.578;12.968;2023-04-06T00:49:53;5.80;1.00
34135;DHT22;20410;55.578;12.968;2023-04-06T00:52:19;5.80;1.00
34135;DHT22;20410;55.578;12.968;2023-04-06T00:54:45;5.70;1.00
34135;DHT22;20410;55.578;12.968;2023-04-06T00:57:12;5.70;1.00
34135;DHT22;20410;55.578;12.968;2023-04-06T00:59:37;5.60;1.00
34135;DHT22;20410;55.578;12.968;2023-04-06T01:02:03;5.60;1.00
34135;DHT22;20410;55.578;12.968;2023-04-06T01:04:29;5.60;1.00
34135;DHT22;20410;55.578;12.968;2023-04-06T01:06:55;5.60;1.00
34135;DHT22;20410;55.578;12.968;2023-04-06T01:09:21;5.50;1.00
34135;DHT22;20410;55.578;12.968;2023-04-06T01:11:46;5.50;1.00
34135;DHT22;20410;55.578;12.968;2023-04-06T01:14:12;5.40;1.00
34135;DHT22;20410;55.578;12.968;2023-04-06T01:16:38;5.40;1.00
34135;DHT22;20410;55.578;12.968;2023-04-06T01:19:08;5.40;1.00
34135;DHT22;20410;55.578;12.968;2023-04-06T01:21:34;5.50;1.00
34135;DHT22;20410;55.578;12.968;2023-04-06T01:23:59;5.50;1.00
34135;DHT22;20410;55.578;12.968;2023-04-06T01:26:25;5.50;1.00
34135;DHT22;20410;55.578;12.968;2023-04-06T01:28:51;5.50;1.00
34135;DHT22;20410;55.578;12.968;2023-04-06T01:31:17;5.50;1.00
34135;DHT22;20410;55.578;12.968;2023-04-06T01:33:43;5.50;1.00
34135;DHT22;20410;55.578;12.968;2023-04-06T01:36:08;5.50;1.00
34135;DHT22;20410;55.578;12.968;2023-04-06T01:38:34;5.50;1.00
34135;DHT22;20410;55.578;12.968;2023-04-06T01:41:00;5.50;1.00
34135;DHT22;20410;55.578;12.968;2023-04-06T01:43:25;5.50;1.00
34135;DHT22;20410;55.578;12.968;2023-04-06T01:45:51;5.50;1.00
34135;DHT22;20410;55.578;12.968;2023-04-06T01:48:16;5.50;1.00
34135;DHT22;20410;55.578;12.968;2023-04-06T01:50:42;5.50;1.00
34135;DHT22;20410;55.578;12.968;2023-04-06T01:53:08;5.60;1.00
34135;DHT22;20410;55.578;12.968;2023-04-06T01:55:33;5.50;1.00
34135;DHT22;20410;55.578;12.968;2023-04-06T01:57:59;5.50;1.00
34135;DHT22;20410;55.578;12.968;2023-04-06T02:00:24;5.50;1.00
34135;DHT22;20410;55.578;12.968;2023-04-06T02:02:50;5.50;1.00
34135;DHT22;20410;55.578;12.968;2023-04-06T02:05:16;5.50;1.00
34135;DHT22;20410;55.578;12.968;2023-04-06T02:07:41;5.50;1.00
34135;DHT22;20410;55.578;12.968;2023-04-06T02:10:12;5.40;1.00
34135;DHT22;20410;55.578;12.968;2023-04-06T02:12:37;5.40;1.00
34135;DHT22;20410;55.578;12.968;2023-04-06T02:15:03;5.40;1.00
34135;DHT22;20410;55.578;12.968;2023-04-06T02:17:29;5.40;1.00
34135;DHT22;20410;55.578;12.968;2023-04-06T02:19:54;5.40;1.00
34135;DHT22;20410;55.578;12.968;2023-04-06T02:22:20;5.40;1.00
34135;DHT22;20410;55.578;12.968;2023-04-06T02:24:45;5.40;1.00
34135;DHT22;20410;55.578;12.968;2023-04-06T02:27:12;5.40;1.00
34135;DHT22;20410;55.578;12.968;2023-04-06T02:29:37;5.40;1.00
34135;DHT22;20410;55.578;12.968;2023-04-06T02:32:03;5.40;1.00
34135;DHT22;20410;55.578;12.968;2023-04-06T02:34:29;5.40;1.00
34135;DHT22;20410;55.578;12.968;2023-04-06T02:36:55;5.40;1.00
34135;DHT22;20410;55.578;12.968;2023-04-06T02:39:20;5.40;1.00
34135;DHT22;20410;55.578;12.968;2023-04-06T02:41:46;5.40;1.00
34135;DHT22;20410;55.578;12.968;2023-04-06T02:44:11;5.40;1.00
34135;DHT22;20410;55.578;12.968;2023-04-06T02:46:37;5.40;1.00
34135;DHT22;20410;55.578;12.968;2023-04-06T02:49:02;5.40;1.00
34135;DHT22;20410;55.578;12.968;2023-04-06T02:51:28;5.40;1.00
34135;DHT22;20410;55.578;12.968;2023-04-06T02:53:53;5.30;1.00
34135;DHT22;20410;55.578;12.968;2023-04-06T02:56:19;5.30;1.00
34135;DHT22;20410;55.578;12.968;2023-04-06T02:58:47;5.20;1.00
34135;DHT22;20410;55.578;12.968;2023-04-06T03:01:12;5.20;1.00
34135;DHT22;20410;55.578;12.968;2023-04-06T03:03:38;5.10;1.00
34135;DHT22;20410;55.578;12.968;2023-04-06T03:06:04;5.10;1.00
34135;DHT22;20410;55.578;12.968;2023-04-06T03:08:29;5.00;1.00
34135;DHT22;20410;55.578;12.968;2023-04-06T03:10:55;5.00;1.00
34135;DHT22;20410;55.578;12.968;2023-04-06T03:13:21;5.00;1.00
34135;DHT22;20410;55.578;12.968;2023-04-06T03:15:46;4.90;1.00
34135;DHT22;20410;55.578;12.968;2023-04-06T03:18:12;4.90;1.00
34135;DHT22;20410;55.578;12.968;2023-04-06T03:20:38;4.90;1.00
34135;DHT22;20410;55.578;12.968;2023-04-06T03:23:04;4.80;1.00
34135;DHT22;20410;55.578;12.968;2023-04-06T03:25:29;4.80;1.00
34135;DHT22;20410;55.578;12.968;2023-04-06T03:27:57;4.80;1.00
34135;DHT22;20410;55.578;12.968;2023-04-06T03:30:23;4.80;1.00
34135;DHT22;20410;55.578;12.968;2023-04-06T03:32:49;4.80;1.00
34135;DHT22;20410;55.578;12.968;2023-04-06T03:35:14;4.80;1.00
34135;DHT22;20410;55.578;12.968;2023-04-06T03:37:40;4.70;1.00
34135;DHT22;20410;55.578;12.968;2023-04-06T03:40:06;4.70;1.00
34135;DHT22;20410;55.578;12.968;2023-04-06T03:42:32;4.70;1.00
34135;DHT22;20410;55.578;12.968;2023-04-06T03:44:58;4.60;1.00
34135;DHT22;20410;55.578;12.968;2023-04-06T03:47:24;4.60;1.00
34135;DHT22;20410;55.578;12.968;2023-04-06T03:49:50;4.70;1.00
34135;DHT22;20410;55.578;12.968;2023-04-06T03:52:16;4.60;1.00
34135;DHT22;20410;55.578;12.968;2023-04-06T03:54:41;4.50;1.00
34135;DHT22;20410;55.578;12.968;2023-04-06T03:57:07;4.50;1.00
34135;DHT22;20410;55.578;12.968;2023-04-06T03:59:32;4.50;1.00
34135;DHT22;20410;55.578;12.968;2023-04-06T04:01:58;4.40;1.00
34135;DHT22;20410;55.578;12.968;2023-04-06T04:04:24;4.40;1.00
34135;DHT22;20410;55.578;12.968;2023-04-06T04:06:49;4.40;1.00
34135;DHT22;20410;55.578;12.968;2023-04-06T04:09:15;4.40;1.00
34135;DHT22;20410;55.578;12.968;2023-04-06T04:11:40;4.40;1.00
34135;DHT22;20410;55.578;12.968;2023-04-06T04:14:06;4.40;1.00
34135;DHT22;20410;55.578;12.968;2023-04-06T04:16:31;4.40;1.00
34135;DHT22;20410;55.578;12.968;2023-04-06T04:18:57;4.40;1.00
34135;DHT22;20410;55.578;12.968;2023-04-06T04:21:25;4.30;1.00
34135;DHT22;20410;55.578;12.968;2023-04-06T04:23:51;4.30;1.00
34135;DHT22;20410;55.578;12.968;2023-04-06T04:26:18;4.30;1.00
34135;DHT22;20410;55.578;12.968;2023-04-06T04:28:43;4.30;1.00
34135;DHT22;20410;55.578;12.968;2023-04-06T04:31:09;4.30;1.00
34135;DHT22;20410;55.578;12.968;2023-04-06T04:33:35;4.20;1.00
34135;DHT22;20410;55.578;12.968;2023-04-06T04:36:01;4.20;1.00
34135;DHT22;20410;55.578;12.968;2023-04-06T04:38:26;4.20;1.00
34135;DHT22;20410;55.578;12.968;2023-04-06T04:40:52;4.20;1.00
34135;DHT22;20410;55.578;12.968;2023-04-06T04:43:17;4.10;1.00
34135;DHT22;20410;55.578;12.968;2023-04-06T04:45:43;4.10;1.00
34135;DHT22;20410;55.578;12.968;2023-04-06T04:48:08;4.00;1.00
34135;DHT22;20410;55.578;12.968;2023-04-06T04:50:34;4.00;1.00
34135;DHT22;20410;55.578;12.968;2023-04-06T04:53:00;3.90;1.00
34135;DHT22;20410;55.578;12.968;2023-04-06T04:55:25;3.90;1.00
34135;DHT22;20410;55.578;12.968;2023-04-06T04:57:51;3.90;1.00
34135;DHT22;20410;55.578;12.968;2023-04-06T05:00:17;3.90;1.00
34135;DHT22;20410;55.578;12.968;2023-04-06T05:02:42;3.90;1.00
34135;DHT22;20410;55.578;12.968;2023-04-06T05:05:08;3.90;1.00
34135;DHT22;20410;55.578;12.968;2023-04-06T05:07:34;3.90;1.00
34135;DHT22;20410;55.578;12.968;2023-04-06T05:10:00;3.90;1.00
34135;DHT22;20410;55.578;12.968;2023-04-06T05:12:26;3.90;1.00
34135;DHT22;20410;55.578;12.968;2023-04-06T05:14:53;4.00;1.00
34135;DHT22;20410;55.578;12.968;2023-04-06T05:17:19;4.00;1.00
34135;DHT22;20410;55.578;12.968;2023-04-06T05:19:45;4.10;1.00
34135;DHT22;20410;55.578;12.968;2023-04-06T05:22:10;4.10;1.00
34135;DHT22;20410;55.578;12.968;2023-04-06T05:24:36;4.00;1.00
34135;DHT22;20410;55.578;12.968;2023-04-06T05:27:02;4.10;1.00
34135;DHT22;20410;55.578;12.968;2023-04-06T05:29:27;4.10;1.00
34135;DHT22;20410;55.578;12.968;2023-04-06T05:31:54;4.20;1.00
34135;DHT22;20410;55.578;12.968;2023-04-06T05:34:19;4.20;1.00
34135;DHT22;20410;55.578;12.968;2023-04-06T05:36:45;4.30;1.00
34135;DHT22;20410;55.578;12.968;2023-04-06T05:39:11;4.40;1.00
34135;DHT22;20410;55.578;12.968;2023-04-06T05:41:37;4.40;1.00
34135;DHT22;20410;55.578;12.968;2023-04-06T05:44:03;4.50;1.00
34135;DHT22;20410;55.578;12.968;2023-04-06T05:46:28;4.60;1.00
34135;DHT22;20410;55.578;12.968;2023-04-06T05:48:54;4.70;1.00
34135;DHT22;20410;55.578;12.968;2023-04-06T05:51:20;4.70;1.00
34135;DHT22;20410;55.578;12.968;2023-04-06T05:53:46;4.80;1.00
34135;DHT22;20410;55.578;12.968;2023-04-06T05:56:11;4.90;1.00
34135;DHT22;20410;55.578;12.968;2023-04-06T05:58:37;4.90;1.00
34135;DHT22;20410;55.578;12.968;2023-04-06T06:01:03;5.00;1.00
34135;DHT22;20410;55.578;12.968;2023-04-06T06:03:30;5.10;1.00
34135;DHT22;20410;55.578;12.968;2023-04-06T06:06:02;5.20;1.00
34135;DHT22;20410;55.578;12.968;2023-04-06T06:08:28;5.30;1.00
34135;DHT22;20410;55.578;12.968;2023-04-06T06:10:55;5.40;1.00
34135;DHT22;20410;55.578;12.968;2023-04-06T06:13:21;5.50;1.00
34135;DHT22;20410;55.578;12.968;2023-04-06T06:15:48;5.50;1.00
34135;DHT22;20410;55.578;12.968;2023-04-06T06:18:14;5.50;1.00
34135;DHT22;20410;55.578;12.968;2023-04-06T06:20:39;5.60;1.00
34135;DHT22;20410;55.578;12.968;2023-04-06T06:23:05;5.70;1.00
34135;DHT22;20410;55.578;12.968;2023-04-06T06:25:31;5.80;1.00
34135;DHT22;20410;55.578;12.968;2023-04-06T06:27:57;5.80;1.00
34135;DHT22;20410;55.578;12.968;2023-04-06T06:30:22;5.90;1.00
34135;DHT22;20410;55.578;12.968;2023-04-06T06:32:48;6.00;1.00
34135;DHT22;20410;55.578;12.968;2023-04-06T06:35:15;6.10;1.00
34135;DHT22;20410;55.578;12.968;2023-04-06T06:37:40;6.10;1.00
34135;DHT22;20410;55.578;12.968;2023-04-06T06:40:06;6.20;1.00
34135;DHT22;20410;55.578;12.968;2023-04-06T06:42:32;6.20;1.00
34135;DHT22;20410;55.578;12.968;2023-04-06T06:44:58;6.30;1.00
34135;DHT22;20410;55.578;12.968;2023-04-06T06:47:23;6.30;1.00
34135;DHT22;20410;55.578;12.968;2023-04-06T06:49:49;6.40;1.00
34135;DHT22;20410;55.578;12.968;2023-04-06T06:52:15;6.50;1.00
34135;DHT22;20410;55.578;12.968;2023-04-06T06:54:40;6.60;1.00
34135;DHT22;20410;55.578;12.968;2023-04-06T06:57:06;6.70;1.00
34135;DHT22;20410;55.578;12.968;2023-04-06T06:59:31;6.70;1.00
34135;DHT22;20410;55.578;12.968;2023-04-06T07:01:57;6.80;1.00
34135;DHT22;20410;55.578;12.968;2023-04-06T07:04:23;6.90;1.00
34135;DHT22;20410;55.578;12.968;2023-04-06T07:06:48;6.90;1.00
34135;DHT22;20410;55.578;12.968;2023-04-06T07:09:14;7.00;1.00
34135;DHT22;20410;55.578;12.968;2023-04-06T07:11:39;7.00;1.00
34135;DHT22;20410;55.578;12.968;2023-04-06T07:14:05;7.10;1.00
34135;DHT22;20410;55.578;12.968;2023-04-06T07:16:30;7.20;1.00
34135;DHT22;20410;55.578;12.968;2023-04-06T07:18:56;7.30;1.00
34135;DHT22;20410;55.578;12.968;2023-04-06T07:21:22;7.40;1.00
34135;DHT22;20410;55.578;12.968;2023-04-06T07:23:47;7.50;1.00
34135;DHT22;20410;55.578;12.968;2023-04-06T07:26:13;7.60;1.00
34135;DHT22;20410;55.578;12.968;2023-04-06T07:28:39;7.70;1.00
34135;DHT22;20410;55.578;12.968;2023-04-06T07:31:05;7.80;1.00
34135;DHT22;20410;55.578;12.968;2023-04-06T07:33:30;7.90;1.00
34135;DHT22;20410;55.578;12.968;2023-04-06T07:35:56;8.00;1.00
34135;DHT22;20410;55.578;12.968;2023-04-06T07:38:23;8.00;1.00
34135;DHT22;20410;55.578;12.968;2023-04-06T07:40:49;8.10;1.00
34135;DHT22;20410;55.578;12.968;2023-04-06T07:43:14;8.10;1.00
34135;DHT22;20410;55.578;12.968;2023-04-06T07:45:40;8.20;1.00
34135;DHT22;20410;55.578;12.968;2023-04-06T07:48:06;8.20;1.00
34135;DHT22;20410;55.578;12.968;2023-04-06T07:50:31;8.30;1.00
34135;DHT22;20410;55.578;12.968;2023-04-06T07:52:57;8.50;99.90
34135;DHT22;20410;55.578;12.968;2023-04-06T07:55:23;8.60;99.90
34135;DHT22;20410;55.578;12.968;2023-04-06T07:57:48;8.60;99.90
34135;DHT22;20410;55.578;12.968;2023-04-06T08:00:14;8.80;99.90
34135;DHT22;20410;55.578;12.968;2023-04-06T08:02:40;8.70;99.90
34135;DHT22;20410;55.578;12.968;2023-04-06T08:05:05;8.80;99.90
34135;DHT22;20410;55.578;12.968;2023-04-06T08:07:31;8.80;99.90
34135;DHT22;20410;55.578;12.968;2023-04-06T08:09:57;8.80;99.90
34135;DHT22;20410;55.578;12.968;2023-04-06T08:12:22;8.60;99.90
34135;DHT22;20410;55.578;12.968;2023-04-06T08:14:48;8.60;99.90
34135;DHT22;20410;55.578;12.968;2023-04-06T08:17:13;8.80;99.90
34135;DHT22;20410;55.578;12.968;2023-04-06T08:19:39;8.80;99.90
34135;DHT22;20410;55.578;12.968;2023-04-06T08:22:04;8.80;99.90
34135;DHT22;20410;55.578;12.968;2023-04-06T08:24:30;8.70;99.90
34135;DHT22;20410;55.578;12.968;2023-04-06T08:26:57;8.60;99.90
34135;DHT22;20410;55.578;12.968;2023-04-06T08:29:23;8.60;99.90
34135;DHT22;20410;55.578;12.968;2023-04-06T08:31:48;8.70;99.90
34135;DHT22;20410;55.578;12.968;2023-04-06T08:34:14;8.90;99.90
34135;DHT22;20410;55.578;12.968;2023-04-06T08:36:41;9.10;99.90
34135;DHT22;20410;55.578;12.968;2023-04-06T08:39:06;9.20;99.90
34135;DHT22;20410;55.578;12.968;2023-04-06T08:41:32;9.40;99.90
34135;DHT22;20410;55.578;12.968;2023-04-06T08:43:59;9.50;99.90
34135;DHT22;20410;55.578;12.968;2023-04-06T08:46:26;9.60;99.90
34135;DHT22;20410;55.578;12.968;2023-04-06T08:48:55;9.70;84.00
34135;DHT22;20410;55.578;12.968;2023-04-06T08:51:23;9.80;94.40
34135;DHT22;20410;55.578;12.968;2023-04-06T08:53:49;9.70;10.90
34135;DHT22;20410;55.578;12.968;2023-04-06T08:56:15;9.70;99.90
34135;DHT22;20410;55.578;12.968;2023-04-06T08:58:41;9.70;59.30
34135;DHT22;20410;55.578;12.968;2023-04-06T09:01:11;9.80;90.90
34135;DHT22;20410;55.578;12.968;2023-04-06T09:03:38;10.00;99.90
34135;DHT22;20410;55.578;12.968;2023-04-06T09:06:07;10.10;1.00
34135;DHT22;20410;55.578;12.968;2023-04-06T09:08:34;10.10;19.20
34135;DHT22;20410;55.578;12.968;2023-04-06T09:11:04;10.00;1.00
34135;DHT22;20410;55.578;12.968;2023-04-06T09:13:30;9.90;1.00
34135;DHT22;20410;55.578;12.968;2023-04-06T09:16:02;9.90;1.00
34135;DHT22;20410;55.578;12.968;2023-04-06T09:18:29;10.10;1.00
34135;DHT22;20410;55.578;12.968;2023-04-06T09:21:03;10.40;1.00
34135;DHT22;20410;55.578;12.968;2023-04-06T09:23:29;10.50;1.00
34135;DHT22;20410;55.578;12.968;2023-04-06T09:28:46;10.50;1.00
34135;DHT22;20410;55.578;12.968;2023-04-06T09:31:14;10.50;1.00
34135;DHT22;20410;55.578;12.968;2023-04-06T09:33:44;10.50;1.00
34135;DHT22;20410;55.578;12.968;2023-04-06T09:36:10;10.60;1.00
34135;DHT22;20410;55.578;12.968;2023-04-06T09:39:24;10.50;1.00
34135;DHT22;20410;55.578;12.968;2023-04-06T09:41:29;10.40;99.90
34135;DHT22;20410;55.578;12.968;2023-04-06T09:44:11;10.50;1.00
34135;DHT22;20410;55.578;12.968;2023-04-06T09:46:44;10.50;1.00
34135;DHT22;20410;55.578;12.968;2023-04-06T09:49:11;10.40;1.00
34135;DHT22;20410;55.578;12.968;2023-04-06T09:54:04;10.60;1.00
34135;DHT22;20410;55.578;12.968;2023-04-06T09:56:37;10.80;1.00
34135;DHT22;20410;55.578;12.968;2023-04-06T09:59:09;10.90;1.00
34135;DHT22;20410;55.578;12.968;2023-04-06T10:01:39;11.00;72.10
34135;DHT22;20410;55.578;12.968;2023-04-06T10:04:11;11.20;99.90
34135;DHT22;20410;55.578;12.968;2023-04-06T10:06:38;11.20;1.00
34135;DHT22;20410;55.578;12.968;2023-04-06T10:09:05;11.20;1.00
34135;DHT22;20410;55.578;12.968;2023-04-06T10:11:34;11.20;99.90
34135;DHT22;20410;55.578;12.968;2023-04-06T10:14:00;11.20;99.90
34135;DHT22;20410;55.578;12.968;2023-04-06T10:16:26;11.20;99.90
34135;DHT22;20410;55.578;12.968;2023-04-06T10:18:57;11.30;38.60
34135;DHT22;20410;55.578;12.968;2023-04-06T10:21:27;11.40;99.90
34135;DHT22;20410;55.578;12.968;2023-04-06T10:23:59;11.50;99.90
34135;DHT22;20410;55.578;12.968;2023-04-06T10:26:26;11.60;61.20
34135;DHT22;20410;55.578;12.968;2023-04-06T10:28:51;11.70;99.90
34135;DHT22;20410;55.578;12.968;2023-04-06T10:31:27;11.90;1.00
34135;DHT22;20410;55.578;12.968;2023-04-06T10:33:55;11.90;1.00
34135;DHT22;20410;55.578;12.968;2023-04-06T10:36:28;11.90;1.00
34135;DHT22;20410;55.578;12.968;2023-04-06T10:38:59;11.80;1.00
34135;DHT22;20410;55.578;12.968;2023-04-06T10:41:36;11.70;99.90
34135;DHT22;20410;55.578;12.968;2023-04-06T10:44:06;11.90;99.90
34135;DHT22;20410;55.578;12.968;2023-04-06T10:46:33;11.90;55.10
34135;DHT22;20410;55.578;12.968;2023-04-06T10:49:10;11.80;99.90
34135;DHT22;20410;55.578;12.968;2023-04-06T10:51:39;11.90;99.90
34135;DHT22;20410;55.578;12.968;2023-04-06T10:54:06;12.00;99.90
34135;DHT22;20410;55.578;12.968;2023-04-06T10:56:32;11.90;1.00
34135;DHT22;20410;55.578;12.968;2023-04-06T10:59:01;11.80;99.90
34135;DHT22;20410;55.578;12.968;2023-04-06T11:01:27;11.80;99.90
34135;DHT22;20410;55.578;12.968;2023-04-06T11:03:54;11.70;1.00
34135;DHT22;20410;55.578;12.968;2023-04-06T11:06:25;11.60;99.90
34135;DHT22;20410;55.578;12.968;2023-04-06T11:08:53;11.60;99.90
34135;DHT22;20410;55.578;12.968;2023-04-06T11:11:20;11.80;99.90
34135;DHT22;20410;55.578;12.968;2023-04-06T11:13:58;11.90;99.90
34135;DHT22;20410;55.578;12.968;2023-04-06T11:16:26;11.80;99.90
34135;DHT22;20410;55.578;12.968;2023-04-06T11:18:54;11.10;99.90
34135;DHT22;20410;55.578;12.968;2023-04-06T11:21:46;11.20;99.90
34135;DHT22;20410;55.578;12.968;2023-04-06T11:26:48;11.10;99.90
34135;DHT22;20410;55.578;12.968;2023-04-06T11:29:25;11.20;99.90
34135;DHT22;20410;55.578;12.968;2023-04-06T11:31:53;11.40;99.90
34135;DHT22;20410;55.578;12.968;2023-04-06T11:34:20;11.40;99.90
34135;DHT22;20410;55.578;12.968;2023-04-06T11:36:48;11.60;99.90
34135;DHT22;20410;55.578;12.968;2023-04-06T11:39:19;11.70;90.90
34135;DHT22;20410;55.578;12.968;2023-04-06T11:41:49;11.90;99.90
34135;DHT22;20410;55.578;12.968;2023-04-06T11:44:26;12.30;99.90
34135;DHT22;20410;55.578;12.968;2023-04-06T11:46:53;12.10;25.60
34135;DHT22;20410;55.578;12.968;2023-04-06T11:49:19;12.00;1.00
34135;DHT22;20410;55.578;12.968;2023-04-06T11:51:46;11.90;99.90
34135;DHT22;20410;55.578;12.968;2023-04-06T11:54:11;12.00;95.00
34135;DHT22;20410;55.578;12.968;2023-04-06T11:56:38;11.90;1.00
34135;DHT22;20410;55.578;12.968;2023-04-06T11:59:03;11.90;1.00
34135;DHT22;20410;55.578;12.968;2023-04-06T12:01:29;12.00;1.00
34135;DHT22;20410;55.578;12.968;2023-04-06T12:03:55;12.00;71.10
34135;DHT22;20410;55.578;12.968;2023-04-06T12:06:21;12.20;52.80
34135;DHT22;20410;55.578;12.968;2023-04-06T12:08:46;12.40;57.50
34135;DHT22;20410;55.578;12.968;2023-04-06T12:11:12;12.40;99.90
34135;DHT22;20410;55.578;12.968;2023-04-06T12:13:38;12.60;93.90
34135;DHT22;20410;55.578;12.968;2023-04-06T12:16:04;12.50;1.00
34135;DHT22;20410;55.578;12.968;2023-04-06T12:18:30;12.30;1.00
34135;DHT22;20410;55.578;12.968;2023-04-06T12:20:56;12.20;1.00
34135;DHT22;20410;55.578;12.968;2023-04-06T12:23:21;12.00;1.00
34135;DHT22;20410;55.578;12.968;2023-04-06T12:25:47;12.00;1.00
34135;DHT22;20410;55.578;12.968;2023-04-06T12:28:12;12.30;1.00
34135;DHT22;20410;55.578;12.968;2023-04-06T12:30:38;12.50;1.00
34135;DHT22;20410;55.578;12.968;2023-04-06T12:33:04;12.80;1.00
34135;DHT22;20410;55.578;12.968;2023-04-06T12:35:33;13.00;59.70
34135;DHT22;20410;55.578;12.968;2023-04-06T12:37:59;12.90;1.00
34135;DHT22;20410;55.578;12.968;2023-04-06T12:40:25;12.60;1.00
34135;DHT22;20410;55.578;12.968;2023-04-06T12:42:50;12.30;1.00
34135;DHT22;20410;55.578;12.968;2023-04-06T12:45:16;12.30;1.00
34135;DHT22;20410;55.578;12.968;2023-04-06T12:47:41;12.40;1.00
34135;DHT22;20410;55.578;12.968;2023-04-06T12:50:07;12.50;1.00
34135;DHT22;20410;55.578;12.968;2023-04-06T12:52:33;12.30;58.80
34135;DHT22;20410;55.578;12.968;2023-04-06T12:55:03;12.20;93.60
34135;DHT22;20410;55.578;12.968;2023-04-06T12:57:30;12.10;1.00
34135;DHT22;20410;55.578;12.968;2023-04-06T12:59:56;11.90;1.00
34135;DHT22;20410;55.578;12.968;2023-04-06T13:02:22;11.90;1.00
34135;DHT22;20410;55.578;12.968;2023-04-06T13:04:48;12.10;1.00
34135;DHT22;20410;55.578;12.968;2023-04-06T13:07:14;12.10;1.00
34135;DHT22;20410;55.578;12.968;2023-04-06T13:09:40;11.90;1.00
34135;DHT22;20410;55.578;12.968;2023-04-06T13:12:05;11.70;1.00
34135;DHT22;20410;55.578;12.968;2023-04-06T13:14:31;11.80;99.90
34135;DHT22;20410;55.578;12.968;2023-04-06T13:16:57;11.80;1.00
34135;DHT22;20410;55.578;12.968;2023-04-06T13:19:23;11.80;1.00
34135;DHT22;20410;55.578;12.968;2023-04-06T13:21:48;11.80;1.00
34135;DHT22;20410;55.578;12.968;2023-04-06T13:24:14;11.80;1.00
34135;DHT22;20410;55.578;12.968;2023-04-06T13:26:40;11.90;99.90
34135;DHT22;20410;55.578;12.968;2023-04-06T13:29:05;12.00;5.30
34135;DHT22;20410;55.578;12.968;2023-04-06T13:31:31;11.90;92.00
34135;DHT22;20410;55.578;12.968;2023-04-06T13:33:57;11.80;68.90
34135;DHT22;20410;55.578;12.968;2023-04-06T13:36:22;11.80;65.90
34135;DHT22;20410;55.578;12.968;2023-04-06T13:38:48;11.80;1.00
34135;DHT22;20410;55.578;12.968;2023-04-06T13:41:20;11.60;51.70
34135;DHT22;20410;55.578;12.968;2023-04-06T13:43:47;11.60;99.90
34135;DHT22;20410;55.578;12.968;2023-04-06T13:46:13;11.60;99.90
34135;DHT22;20410;55.578;12.968;2023-04-06T13:48:38;11.60;99.90
34135;DHT22;20410;55.578;12.968;2023-04-06T13:51:10;11.70;99.90
34135;DHT22;20410;55.578;12.968;2023-04-06T13:53:36;11.70;99.90
34135;DHT22;20410;55.578;12.968;2023-04-06T13:56:02;11.70;99.90
34135;DHT22;20410;55.578;12.968;2023-04-06T13:58:28;11.70;99.90
34135;DHT22;20410;55.578;12.968;2023-04-06T14:00:53;11.70;99.90
34135;DHT22;20410;55.578;12.968;2023-04-06T14:03:19;11.70;99.90
34135;DHT22;20410;55.578;12.968;2023-04-06T14:05:45;11.80;99.90
34135;DHT22;20410;55.578;12.968;2023-04-06T14:08:11;11.90;99.90
34135;DHT22;20410;55.578;12.968;2023-04-06T14:10:39;11.90;99.90
34135;DHT22;20410;55.578;12.968;2023-04-06T14:13:08;11.90;99.90
34135;DHT22;20410;55.578;12.968;2023-04-06T14:15:34;11.70;99.90
34135;DHT22;20410;55.578;12.968;2023-04-06T14:18:00;11.70;99.90
34135;DHT22;20410;55.578;12.968;2023-04-06T14:20:26;11.80;99.90
34135;DHT22;20410;55.578;12.968;2023-04-06T14:22:52;11.90;99.90
34135;DHT22;20410;55.578;12.968;2023-04-06T14:25:19;11.70;99.90
34135;DHT22;20410;55.578;12.968;2023-04-06T14:27:45;11.60;99.90
34135;DHT22;20410;55.578;12.968;2023-04-06T14:30:11;11.70;99.90
34135;DHT22;20410;55.578;12.968;2023-04-06T14:32:37;11.70;39.50
34135;DHT22;20410;55.578;12.968;2023-04-06T14:35:03;11.60;99.90
34135;DHT22;20410;55.578;12.968;2023-04-06T14:37:29;11.60;99.90
34135;DHT22;20410;55.578;12.968;2023-04-06T14:39:55;11.60;16.70
34135;DHT22;20410;55.578;12.968;2023-04-06T14:42:21;11.70;93.50
34135;DHT22;20410;55.578;12.968;2023-04-06T14:44:46;11.60;1.00
34135;DHT22;20410;55.578;12.968;2023-04-06T14:47:14;11.60;1.00
34135;DHT22;20410;55.578;12.968;2023-04-06T14:49:54;11.00;1.00
34135;DHT22;20410;55.578;12.968;2023-04-06T14:52:19;10.80;1.00
34135;DHT22;20410;55.578;12.968;2023-04-06T14:54:45;10.80;99.90
34135;DHT22;20410;55.578;12.968;2023-04-06T14:57:11;10.90;99.90
34135;DHT22;20410;55.578;12.968;2023-04-06T14:59:36;10.90;92.50
34135;DHT22;20410;55.578;12.968;2023-04-06T15:02:03;11.10;99.90
34135;DHT22;20410;55.578;12.968;2023-04-06T15:04:29;11.20;99.90
34135;DHT22;20410;55.578;12.968;2023-04-06T15:06:55;11.30;28.20
34135;DHT22;20410;55.578;12.968;2023-04-06T15:09:21;11.20;98.00
34135;DHT22;20410;55.578;12.968;2023-04-06T15:11:46;11.10;1.00
34135;DHT22;20410;55.578;12.968;2023-04-06T15:14:12;11.10;77.60
34135;DHT22;20410;55.578;12.968;2023-04-06T15:16:37;11.00;1.00
34135;DHT22;20410;55.578;12.968;2023-04-06T15:19:03;10.90;1.00
34135;DHT22;20410;55.578;12.968;2023-04-06T15:21:28;10.70;1.00
34135;DHT22;20410;55.578;12.968;2023-04-06T15:23:55;10.60;62.50
34135;DHT22;20410;55.578;12.968;2023-04-06T15:26:21;10.50;1.00
34135;DHT22;20410;55.578;12.968;2023-04-06T15:28:47;10.40;1.00
34135;DHT22;20410;55.578;12.968;2023-04-06T15:31:17;10.30;1.00
34135;DHT22;20410;55.578;12.968;2023-04-06T15:33:43;10.30;1.00
34135;DHT22;20410;55.578;12.968;2023-04-06T15:36:38;10.30;1.00
34135;DHT22;20410;55.578;12.968;2023-04-06T15:39:04;10.20;1.00